createdAt,value
2023-01-29T00:02:05.956Z,-0.63
2023-01-29T00:04:34.211Z,-0.61
2023-01-29T00:07:01.957Z,-0.68
2023-01-29T00:09:29.727Z,-0.72
2023-01-29T00:11:57.381Z,-0.78
2023-01-29T00:14:26.684Z,-0.79
2023-01-29T00:16:54.908Z,-0.79
2023-01-29T00:19:22.723Z,-0.81
2023-01-29T00:21:50.385Z,-0.82
2023-01-29T00:24:18.177Z,-0.85
2023-01-29T00:26:46.017Z,-0.85
2023-01-29T00:29:14.088Z,-0.79
2023-01-29T00:31:42.095Z,-0.79
2023-01-29T00:34:09.919Z,-0.79
2023-01-29T00:36:37.581Z,-0.80
2023-01-29T00:39:10.974Z,-0.81
2023-01-29T00:41:57.482Z,-0.80
2023-01-29T00:44:43.886Z,-0.70
2023-01-29T00:47:30.760Z,-0.64
2023-01-29T00:49:58.562Z,-0.62
2023-01-29T00:52:26.371Z,-0.62
2023-01-29T00:54:54.188Z,-0.65
2023-01-29T00:57:21.951Z,-0.66
2023-01-29T00:59:49.715Z,-0.67
2023-01-29T01:02:36.117Z,-0.64
2023-01-29T01:05:03.983Z,-0.60
2023-01-29T01:07:31.645Z,-0.62
2023-01-29T01:10:18.552Z,-0.61
2023-01-29T01:12:46.427Z,-0.60
2023-01-29T01:15:14.195Z,-0.62
2023-01-29T01:17:41.951Z,-0.67
2023-01-29T01:20:09.820Z,-0.69
2023-01-29T01:22:37.479Z,-0.70
2023-01-29T01:25:05.140Z,-0.72
2023-01-29T01:27:32.903Z,-0.73
2023-01-29T01:30:00.665Z,-0.75
2023-01-29T01:32:28.336Z,-0.77
2023-01-29T01:34:56.095Z,-0.80
2023-01-29T01:37:23.754Z,-0.76
2023-01-29T01:39:51.416Z,-0.74
2023-01-29T01:42:19.079Z,-0.75
2023-01-29T01:44:46.739Z,-0.75
2023-01-29T01:47:15.732Z,-0.75
2023-01-29T01:49:43.395Z,-0.74
2023-01-29T01:52:11.158Z,-0.75
2023-01-29T01:54:38.790Z,-0.78
2023-01-29T01:57:09.564Z,-0.78
2023-01-29T01:59:37.318Z,-0.73
2023-01-29T02:02:24.048Z,-0.77
2023-01-29T02:05:10.785Z,-0.85
2023-01-29T02:07:57.439Z,-0.93
2023-01-29T02:10:25.408Z,-0.97
2023-01-29T02:12:53.177Z,-0.98
2023-01-29T02:15:20.940Z,-0.97
2023-01-29T02:17:48.747Z,-0.96
2023-01-29T02:20:16.657Z,-0.95
2023-01-29T02:22:44.533Z,-0.89
2023-01-29T02:25:12.400Z,-0.81
2023-01-29T02:27:40.167Z,-0.78
2023-01-29T02:30:07.934Z,-0.77
2023-01-29T02:32:35.901Z,-0.82
2023-01-29T02:35:22.301Z,-0.87
2023-01-29T02:37:49.960Z,-0.92
2023-01-29T02:40:17.869Z,-0.97
2023-01-29T02:42:45.898Z,-1.03
2023-01-29T02:45:13.562Z,-1.04
2023-01-29T02:47:41.322Z,-1.02
2023-01-29T02:50:09.090Z,-0.98
2023-01-29T02:52:36.850Z,-0.93
2023-01-29T02:55:05.024Z,-0.91
2023-01-29T02:57:32.794Z,-0.89
2023-01-29T03:00:00.452Z,-0.89
2023-01-29T03:02:28.230Z,-0.85
2023-01-29T03:04:55.978Z,-0.81
2023-01-29T03:07:43.093Z,-0.80
2023-01-29T03:10:10.859Z,-0.77
2023-01-29T03:12:38.520Z,-0.74
2023-01-29T03:15:12.440Z,-0.74
2023-01-29T03:17:40.193Z,-0.77
2023-01-29T03:20:08.366Z,-0.78
2023-01-29T03:22:36.024Z,-0.77
2023-01-29T03:25:22.631Z,-0.81
2023-01-29T03:28:09.337Z,-0.78
2023-01-29T03:30:55.791Z,-0.76
2023-01-29T03:33:23.505Z,-0.80
2023-01-29T03:35:52.194Z,-0.87
2023-01-29T03:38:19.956Z,-0.94
2023-01-29T03:40:47.624Z,-1.01
2023-01-29T03:43:15.378Z,-1.09
2023-01-29T03:45:43.207Z,-1.12
2023-01-29T03:48:11.111Z,-1.18
2023-01-29T03:50:38.975Z,-1.25
2023-01-29T03:53:06.749Z,-1.30
2023-01-29T03:55:34.509Z,-1.33
2023-01-29T03:58:02.269Z,-1.33
2023-01-29T04:00:29.934Z,-1.32
2023-01-29T04:02:57.695Z,-1.25
2023-01-29T04:05:25.567Z,-1.20
2023-01-29T04:07:53.323Z,-1.18
2023-01-29T04:10:21.089Z,-1.16
2023-01-29T04:12:48.865Z,-1.13
2023-01-29T04:15:16.723Z,-1.12
2023-01-29T04:17:44.481Z,-1.11
2023-01-29T04:20:12.246Z,-1.12
2023-01-29T04:22:39.914Z,-1.13
2023-01-29T04:25:08.798Z,-1.13
2023-01-29T04:27:36.561Z,-1.13
2023-01-29T04:30:04.329Z,-1.08
2023-01-29T04:32:32.101Z,-1.03
2023-01-29T04:34:59.854Z,-1.04
2023-01-29T04:37:27.623Z,-1.07
2023-01-29T04:39:55.486Z,-1.08
2023-01-29T04:42:23.249Z,-1.09
2023-01-29T04:44:50.905Z,-1.10
2023-01-29T04:47:18.819Z,-1.12
2023-01-29T04:49:46.539Z,-1.14
2023-01-29T04:52:14.199Z,-1.16
2023-01-29T04:54:41.861Z,-1.14
2023-01-29T04:57:09.933Z,-1.14
2023-01-29T04:59:37.697Z,-1.18
2023-01-29T05:02:05.460Z,-1.24
2023-01-29T05:04:33.128Z,-1.31
2023-01-29T05:07:00.886Z,-1.39
2023-01-29T05:09:28.556Z,-1.43
2023-01-29T05:11:56.314Z,-1.46
2023-01-29T05:14:24.079Z,-1.46
2023-01-29T05:16:51.740Z,-1.41
2023-01-29T05:19:19.502Z,-1.40
2023-01-29T05:21:47.167Z,-1.41
2023-01-29T05:24:14.912Z,-1.40
2023-01-29T05:27:01.228Z,-1.42
2023-01-29T05:29:28.888Z,-1.45
2023-01-29T05:31:56.606Z,-1.47
2023-01-29T05:34:24.418Z,-1.45
2023-01-29T05:36:52.189Z,-1.45
2023-01-29T05:39:19.948Z,-1.48
2023-01-29T05:41:47.710Z,-1.49
2023-01-29T05:44:15.592Z,-1.46
2023-01-29T05:46:44.308Z,-1.45
2023-01-29T05:49:12.123Z,-1.53
2023-01-29T05:51:39.888Z,-1.63
2023-01-29T05:54:07.655Z,-1.71
2023-01-29T05:56:35.414Z,-1.76
2023-01-29T05:59:03.294Z,-1.77
2023-01-29T06:01:31.040Z,-1.80
2023-01-29T06:03:58.911Z,-1.82
2023-01-29T06:06:26.573Z,-1.79
2023-01-29T06:08:54.336Z,-1.81
2023-01-29T06:11:22.099Z,-1.86
2023-01-29T06:13:49.865Z,-1.92
2023-01-29T06:16:17.708Z,-1.96
2023-01-29T06:18:45.598Z,-1.97
2023-01-29T06:21:13.365Z,-2.02
2023-01-29T06:23:41.124Z,-2.04
2023-01-29T06:26:08.891Z,-2.01
2023-01-29T06:28:36.654Z,-2.04
2023-01-29T06:31:23.771Z,-2.07
2023-01-29T06:33:52.049Z,-2.09
2023-01-29T06:36:19.816Z,-2.13
2023-01-29T06:38:47.702Z,-2.15
2023-01-29T06:41:15.543Z,-2.18
2023-01-29T06:43:43.303Z,-2.14
2023-01-29T06:46:10.968Z,-2.15
2023-01-29T06:48:38.737Z,-2.19
2023-01-29T06:51:06.497Z,-2.21
2023-01-29T06:53:34.259Z,-2.22
2023-01-29T06:56:02.025Z,-2.25
2023-01-29T06:58:29.825Z,-2.27
2023-01-29T07:00:57.901Z,-2.25
2023-01-29T07:03:25.724Z,-2.22
2023-01-29T07:05:53.591Z,-2.16
2023-01-29T07:08:22.991Z,-2.12
2023-01-29T07:10:50.962Z,-2.14
2023-01-29T07:13:18.724Z,-2.17
2023-01-29T07:15:46.487Z,-2.20
2023-01-29T07:18:14.267Z,-2.25
2023-01-29T07:20:42.119Z,-2.28
2023-01-29T07:23:09.885Z,-2.32
2023-01-29T07:25:37.646Z,-2.35
2023-01-29T07:28:05.309Z,-2.31
2023-01-29T07:30:33.031Z,-2.29
2023-01-29T07:33:00.736Z,-2.28
2023-01-29T07:35:28.496Z,-2.25
2023-01-29T07:37:56.266Z,-2.27
2023-01-29T07:40:24.026Z,-2.31
2023-01-29T07:42:51.789Z,-2.34
2023-01-29T07:45:19.552Z,-2.38
2023-01-29T07:47:47.225Z,-2.34
2023-01-29T07:50:15.373Z,-2.33
2023-01-29T07:52:43.358Z,-2.34
2023-01-29T07:55:11.018Z,-2.32
2023-01-29T07:57:38.796Z,-2.33
2023-01-29T08:00:06.545Z,-2.34
2023-01-29T08:02:34.391Z,-2.36
2023-01-29T08:05:02.175Z,-2.37
2023-01-29T08:07:29.939Z,-2.34
2023-01-29T08:09:57.708Z,-2.32
2023-01-29T08:12:25.467Z,-2.37
2023-01-29T08:14:53.232Z,-2.39
2023-01-29T08:17:21.000Z,-2.39
2023-01-29T08:19:48.761Z,-2.40
2023-01-29T08:22:16.840Z,-2.38
2023-01-29T08:24:53.716Z,-2.35
2023-01-29T08:27:27.927Z,-2.23
2023-01-29T08:29:55.685Z,-2.15
2023-01-29T08:32:23.363Z,-2.09
2023-01-29T08:34:51.130Z,-2.03
2023-01-29T08:37:18.887Z,-1.99
2023-01-29T08:39:46.657Z,-1.94
2023-01-29T08:42:14.403Z,-1.90
2023-01-29T08:44:42.169Z,-1.89
2023-01-29T08:47:09.828Z,-1.90
2023-01-29T08:49:37.598Z,-1.88
2023-01-29T08:52:05.254Z,-1.85
2023-01-29T08:54:33.017Z,-1.81
2023-01-29T08:57:00.782Z,-1.78
2023-01-29T08:59:28.445Z,-1.75
2023-01-29T09:01:56.208Z,-1.64
2023-01-29T09:04:23.868Z,-1.60
2023-01-29T09:06:51.632Z,-1.59
2023-01-29T09:09:19.294Z,-1.57
2023-01-29T09:11:47.057Z,-1.51
2023-01-29T09:14:14.926Z,-1.49
2023-01-29T09:16:42.812Z,-1.48
2023-01-29T09:19:10.556Z,-1.46
2023-01-29T09:21:38.224Z,-1.44
2023-01-29T09:24:05.979Z,-1.42
2023-01-29T09:26:33.672Z,-1.40
2023-01-29T09:29:01.510Z,-1.39
2023-01-29T09:31:29.344Z,-1.39
2023-01-29T09:33:57.239Z,-1.37
2023-01-29T09:36:25.010Z,-1.33
2023-01-29T09:38:52.767Z,-1.30
2023-01-29T09:41:20.427Z,-1.21
2023-01-29T09:43:48.500Z,-1.18
2023-01-29T09:46:16.312Z,-1.21
2023-01-29T09:48:44.133Z,-1.20
2023-01-29T09:51:11.895Z,-1.18
2023-01-29T09:53:39.711Z,-1.22
2023-01-29T09:56:07.421Z,-1.27
2023-01-29T09:58:35.915Z,-1.30
2023-01-29T10:01:03.720Z,-1.33
2023-01-29T10:03:31.430Z,-1.37
2023-01-29T10:05:59.092Z,-1.40
2023-01-29T10:08:26.964Z,-1.41
2023-01-29T10:10:55.334Z,-1.40
2023-01-29T10:13:23.102Z,-1.38
2023-01-29T10:15:50.968Z,-1.29
2023-01-29T10:18:18.749Z,-1.25
2023-01-29T10:20:46.502Z,-1.23
2023-01-29T10:23:14.260Z,-1.20
2023-01-29T10:25:42.037Z,-1.14
2023-01-29T10:28:09.787Z,-1.13
2023-01-29T10:30:37.565Z,-1.10
2023-01-29T10:33:05.315Z,-1.09
2023-01-29T10:35:33.076Z,-1.10
2023-01-29T10:38:00.840Z,-1.10
2023-01-29T10:40:28.502Z,-1.13
2023-01-29T10:42:57.494Z,-1.17
2023-01-29T10:45:25.155Z,-1.19
2023-01-29T10:47:53.116Z,-1.18
2023-01-29T10:50:20.995Z,-1.16
2023-01-29T10:52:50.110Z,-1.19
2023-01-29T10:55:18.120Z,-1.15
2023-01-29T10:57:46.126Z,-1.05
2023-01-29T11:00:13.903Z,-1.00
2023-01-29T11:02:41.742Z,-0.99
2023-01-29T11:05:10.313Z,-0.97
2023-01-29T11:07:38.122Z,-1.00
2023-01-29T11:10:05.870Z,-1.01
2023-01-29T11:12:33.946Z,-1.01
2023-01-29T11:15:01.702Z,-1.05
2023-01-29T11:17:29.479Z,-1.09
2023-01-29T11:19:57.192Z,-1.14
2023-01-29T11:22:24.993Z,-1.20
2023-01-29T11:24:52.779Z,-1.27
2023-01-29T11:27:20.521Z,-1.31
2023-01-29T11:29:48.409Z,-1.29
2023-01-29T11:32:16.151Z,-1.24
2023-01-29T11:34:43.918Z,-1.17
2023-01-29T11:37:11.684Z,-1.14
2023-01-29T11:39:39.442Z,-1.12
2023-01-29T11:42:13.502Z,-1.08
2023-01-29T11:44:41.829Z,-1.06
2023-01-29T11:47:09.495Z,-1.02
2023-01-29T11:49:37.667Z,-0.93
2023-01-29T11:52:05.337Z,-0.87
2023-01-29T11:54:33.603Z,-0.89
2023-01-29T11:57:01.572Z,-0.94
2023-01-29T11:59:29.244Z,-0.98
2023-01-29T12:01:57.210Z,-0.96
2023-01-29T12:04:24.965Z,-0.93
2023-01-29T12:06:53.352Z,-0.88
2023-01-29T12:09:21.113Z,-0.84
2023-01-29T12:11:48.872Z,-0.85
2023-01-29T12:14:16.636Z,-0.89
2023-01-29T12:16:44.403Z,-0.91
2023-01-29T12:19:12.169Z,-0.93
2023-01-29T12:21:40.132Z,-0.92
2023-01-29T12:24:07.910Z,-0.92
2023-01-29T12:26:35.713Z,-0.95
2023-01-29T12:29:03.526Z,-1.00
2023-01-29T12:31:31.201Z,-1.03
2023-01-29T12:33:58.954Z,-1.07
2023-01-29T12:36:26.717Z,-1.10
2023-01-29T12:38:54.480Z,-1.12
2023-01-29T12:41:22.344Z,-1.11
2023-01-29T12:43:50.111Z,-1.05
2023-01-29T12:46:17.771Z,-1.03
2023-01-29T12:48:45.537Z,-1.03
2023-01-29T12:51:13.301Z,-1.03
2023-01-29T12:53:41.062Z,-1.03
2023-01-29T12:56:08.724Z,-1.03
2023-01-29T12:58:36.805Z,-1.05
2023-01-29T13:01:04.612Z,-1.09
2023-01-29T13:03:32.701Z,-1.11
2023-01-29T13:06:00.497Z,-1.11
2023-01-29T13:08:28.260Z,-1.13
2023-01-29T13:10:55.926Z,-1.13
2023-01-29T13:13:23.685Z,-1.12
2023-01-29T13:15:51.456Z,-1.11
2023-01-29T13:18:19.213Z,-1.08
2023-01-29T13:20:46.874Z,-1.03
2023-01-29T13:23:14.537Z,-1.02
2023-01-29T13:25:42.305Z,-1.02
2023-01-29T13:28:09.962Z,-1.04
2023-01-29T13:30:37.656Z,-1.05
2023-01-29T13:33:12.103Z,-1.06
2023-01-29T13:35:40.528Z,-1.06
2023-01-29T13:38:08.185Z,-1.06
2023-01-29T13:40:36.050Z,-1.05
2023-01-29T13:43:04.225Z,-1.08
2023-01-29T13:45:31.992Z,-1.11
2023-01-29T13:47:59.621Z,-1.10
2023-01-29T13:50:27.618Z,-1.06
2023-01-29T13:52:55.280Z,-1.06
2023-01-29T13:55:24.181Z,-1.10
2023-01-29T13:57:54.705Z,-1.15
2023-01-29T14:00:31.072Z,-1.16
2023-01-29T14:02:58.829Z,-1.18
2023-01-29T14:05:26.703Z,-1.19
2023-01-29T14:07:54.459Z,-1.18
2023-01-29T14:10:22.224Z,-1.17
2023-01-29T14:12:49.988Z,-1.17
2023-01-29T14:15:20.989Z,-1.18
2023-01-29T14:17:49.207Z,-1.12
2023-01-29T14:20:16.969Z,-1.07
2023-01-29T14:22:44.726Z,-1.08
2023-01-29T14:25:12.389Z,-1.06
2023-01-29T14:27:40.161Z,-1.07
2023-01-29T14:30:07.931Z,-1.07
2023-01-29T14:32:35.784Z,-1.06
2023-01-29T14:35:03.445Z,-1.05
2023-01-29T14:37:31.253Z,-1.05
2023-01-29T14:39:58.980Z,-1.08
2023-01-29T14:42:26.634Z,-1.12
2023-01-29T14:44:54.295Z,-1.15
2023-01-29T14:47:22.062Z,-1.17
2023-01-29T14:49:49.825Z,-1.15
2023-01-29T14:52:17.799Z,-1.11
2023-01-29T14:54:45.461Z,-1.10
2023-01-29T14:57:13.220Z,-1.10
2023-01-29T14:59:40.881Z,-1.07
2023-01-29T15:02:08.541Z,-1.09
2023-01-29T15:04:36.305Z,-1.11
2023-01-29T15:07:06.736Z,-1.11
2023-01-29T15:09:36.661Z,-1.13
2023-01-29T15:12:04.815Z,-1.15
2023-01-29T15:14:32.614Z,-1.19
2023-01-29T15:17:00.358Z,-1.24
2023-01-29T15:19:28.111Z,-1.22
2023-01-29T15:21:55.874Z,-1.21
2023-01-29T15:24:23.741Z,-1.23
2023-01-29T15:26:51.529Z,-1.26
2023-01-29T15:29:19.370Z,-1.28
2023-01-29T15:31:48.005Z,-1.27
2023-01-29T15:34:15.921Z,-1.30
2023-01-29T15:36:43.686Z,-1.31
2023-01-29T15:39:11.350Z,-1.33
2023-01-29T15:41:39.114Z,-1.36
2023-01-29T15:44:06.774Z,-1.39
2023-01-29T15:46:34.536Z,-1.37
2023-01-29T15:49:02.301Z,-1.36
2023-01-29T15:51:29.971Z,-1.36
2023-01-29T15:53:57.725Z,-1.37
2023-01-29T15:56:25.387Z,-1.38
2023-01-29T15:58:53.158Z,-1.41
2023-01-29T16:01:20.859Z,-1.45
2023-01-29T16:03:48.575Z,-1.48
2023-01-29T16:06:16.545Z,-1.49
2023-01-29T16:08:44.206Z,-1.50
2023-01-29T16:11:11.866Z,-1.51
2023-01-29T16:13:39.544Z,-1.44
2023-01-29T16:16:08.689Z,-1.44
2023-01-29T16:18:36.923Z,-1.47
2023-01-29T16:21:06.711Z,-1.48
2023-01-29T16:23:35.088Z,-1.49
2023-01-29T16:26:02.853Z,-1.49
2023-01-29T16:28:30.521Z,-1.49
2023-01-29T16:30:58.570Z,-1.48
2023-01-29T16:33:26.660Z,-1.47
2023-01-29T16:35:54.425Z,-1.49
2023-01-29T16:38:22.086Z,-1.49
2023-01-29T16:40:49.846Z,-1.42
2023-01-29T16:43:17.513Z,-1.44
2023-01-29T16:45:45.377Z,-1.47
2023-01-29T16:48:13.037Z,-1.48
2023-01-29T16:50:54.375Z,-1.48
2023-01-29T16:53:24.744Z,-1.51
2023-01-29T16:55:52.548Z,-1.55
2023-01-29T16:58:20.389Z,-1.56
2023-01-29T17:00:48.078Z,-1.58
2023-01-29T17:03:15.798Z,-1.56
2023-01-29T17:05:43.563Z,-1.51
2023-01-29T17:08:11.225Z,-1.50
2023-01-29T17:10:38.987Z,-1.54
2023-01-29T17:13:06.872Z,-1.58
2023-01-29T17:15:34.620Z,-1.61
2023-01-29T17:18:02.381Z,-1.64
2023-01-29T17:20:30.042Z,-1.67
2023-01-29T17:22:57.707Z,-1.69
2023-01-29T17:25:25.468Z,-1.75
2023-01-29T17:27:53.137Z,-1.78
2023-01-29T17:30:20.930Z,-1.76
2023-01-29T17:32:48.761Z,-1.68
2023-01-29T17:35:17.574Z,-1.68
2023-01-29T17:37:45.978Z,-1.72
2023-01-29T17:40:13.796Z,-1.70
2023-01-29T17:42:41.659Z,-1.71
2023-01-29T17:45:11.062Z,-1.70
2023-01-29T17:47:38.829Z,-1.69
2023-01-29T17:50:06.594Z,-1.73
2023-01-29T17:52:34.353Z,-1.74
2023-01-29T17:55:02.117Z,-1.77
2023-01-29T17:57:32.581Z,-1.80
2023-01-29T18:00:00.522Z,-1.79
2023-01-29T18:02:28.482Z,-1.76
2023-01-29T18:04:57.687Z,-1.75
2023-01-29T18:07:25.466Z,-1.77
2023-01-29T18:09:53.212Z,-1.77
2023-01-29T18:12:20.869Z,-1.80
2023-01-29T18:14:48.531Z,-1.83
2023-01-29T18:17:22.439Z,-1.84
2023-01-29T18:19:50.142Z,-1.86
2023-01-29T18:22:17.864Z,-1.86
2023-01-29T18:24:45.645Z,-1.86
2023-01-29T18:27:13.389Z,-1.86
2023-01-29T18:29:41.159Z,-1.83
2023-01-29T18:32:08.921Z,-1.76
2023-01-29T18:34:36.683Z,-1.75
2023-01-29T18:37:04.652Z,-1.75
2023-01-29T18:39:32.318Z,-1.74
2023-01-29T18:42:00.022Z,-1.74
2023-01-29T18:44:29.886Z,-1.76
2023-01-29T18:46:57.656Z,-1.78
2023-01-29T18:49:25.416Z,-1.79
2023-01-29T18:51:53.180Z,-1.81
2023-01-29T18:54:21.673Z,-1.79
2023-01-29T18:57:12.875Z,-1.74
2023-01-29T18:59:37.157Z,-1.72
2023-01-29T19:02:05.277Z,-1.74
2023-01-29T19:04:33.097Z,-1.74
2023-01-29T19:07:00.858Z,-1.75
2023-01-29T19:09:28.727Z,-1.76
2023-01-29T19:11:56.498Z,-1.78
2023-01-29T19:14:24.251Z,-1.77
2023-01-29T19:16:51.973Z,-1.78
2023-01-29T19:19:20.399Z,-1.79
2023-01-29T19:21:48.159Z,-1.75
2023-01-29T19:24:16.025Z,-1.74
2023-01-29T19:26:43.736Z,-1.75
2023-01-29T19:29:11.764Z,-1.75
2023-01-29T19:31:39.578Z,-1.78
2023-01-29T19:34:07.395Z,-1.79
2023-01-29T19:36:35.152Z,-1.82
2023-01-29T19:39:02.915Z,-1.86
2023-01-29T19:41:30.786Z,-1.90
2023-01-29T19:43:58.648Z,-1.85
2023-01-29T19:46:26.417Z,-1.81
2023-01-29T19:48:57.145Z,-1.86
2023-01-29T19:51:24.909Z,-1.87
2023-01-29T19:53:52.675Z,-1.86
2023-01-29T19:56:20.648Z,-1.87
2023-01-29T19:58:48.420Z,-1.89
2023-01-29T20:01:16.172Z,-1.91
2023-01-29T20:03:46.696Z,-1.93
2023-01-29T20:06:14.463Z,-1.94
2023-01-29T20:08:42.177Z,-1.87
2023-01-29T20:11:10.095Z,-1.82
2023-01-29T20:13:37.962Z,-1.83
2023-01-29T20:16:05.836Z,-1.82
2023-01-29T20:18:33.692Z,-1.82
2023-01-29T20:21:01.353Z,-1.83
2023-01-29T20:23:37.661Z,-1.84
2023-01-29T20:26:06.104Z,-1.86
2023-01-29T20:28:34.784Z,-1.84
2023-01-29T20:31:03.242Z,-1.78
2023-01-29T20:33:32.770Z,-1.74
2023-01-29T20:36:00.639Z,-1.74
2023-01-29T20:38:31.983Z,-1.73
2023-01-29T20:40:59.853Z,-1.70
2023-01-29T20:43:27.611Z,-1.72
2023-01-29T20:45:55.400Z,-1.72
2023-01-29T20:48:23.558Z,-1.73
2023-01-29T20:50:51.416Z,-1.74
2023-01-29T20:53:19.587Z,-1.72
2023-01-29T20:55:47.969Z,-1.66
2023-01-29T20:58:15.835Z,-1.63
2023-01-29T21:00:43.616Z,-1.64
2023-01-29T21:03:11.361Z,-1.64
2023-01-29T21:05:39.125Z,-1.69
2023-01-29T21:08:06.788Z,-1.72
2023-01-29T21:10:34.550Z,-1.72
2023-01-29T21:13:02.313Z,-1.70
2023-01-29T21:15:30.077Z,-1.69
2023-01-29T21:17:59.788Z,-1.68
2023-01-29T21:20:27.449Z,-1.61
2023-01-29T21:22:55.522Z,-1.59
2023-01-29T21:25:23.698Z,-1.58
2023-01-29T21:27:51.458Z,-1.59
2023-01-29T21:30:19.598Z,-1.57
2023-01-29T21:32:47.701Z,-1.58
2023-01-29T21:35:16.695Z,-1.60
2023-01-29T21:37:44.458Z,-1.63
2023-01-29T21:40:12.127Z,-1.66
2023-01-29T21:42:58.520Z,-1.62
2023-01-29T21:45:26.284Z,-1.59
2023-01-29T21:47:54.048Z,-1.60
2023-01-29T21:50:21.818Z,-1.63
2023-01-29T21:52:49.576Z,-1.66
2023-01-29T21:55:17.442Z,-1.67
2023-01-29T21:57:46.966Z,-1.69
2023-01-29T22:00:14.826Z,-1.71
2023-01-29T22:02:42.940Z,-1.68
2023-01-29T22:05:18.623Z,-1.65
2023-01-29T22:07:47.442Z,-1.66
2023-01-29T22:10:15.838Z,-1.66
2023-01-29T22:12:44.900Z,-1.66
2023-01-29T22:15:12.659Z,-1.69
2023-01-29T22:17:41.786Z,-1.71
2023-01-29T22:20:09.619Z,-1.72
2023-01-29T22:22:37.393Z,-1.65
2023-01-29T22:25:05.189Z,-1.62
2023-01-29T22:27:33.527Z,-1.64
2023-01-29T22:30:01.293Z,-1.64
2023-01-29T22:32:29.091Z,-1.62
2023-01-29T22:34:56.923Z,-1.60
2023-01-29T22:37:24.687Z,-1.59
2023-01-29T22:39:52.452Z,-1.59
2023-01-29T22:42:20.891Z,-1.59
2023-01-29T22:44:48.910Z,-1.60
2023-01-29T22:47:16.663Z,-1.59
2023-01-29T22:49:45.780Z,-1.55
2023-01-29T22:52:13.902Z,-1.48
2023-01-29T22:54:41.599Z,-1.47
2023-01-29T22:57:10.328Z,-1.48
2023-01-29T22:59:38.042Z,-1.48
2023-01-29T23:02:07.955Z,-1.47
2023-01-29T23:04:35.736Z,-1.47
2023-01-29T23:07:03.596Z,-1.49
2023-01-29T23:09:31.280Z,-1.49
2023-01-29T23:11:59.016Z,-1.51
2023-01-29T23:14:26.674Z,-1.51
2023-01-29T23:16:54.440Z,-1.46
2023-01-29T23:19:22.203Z,-1.44
2023-01-29T23:21:49.976Z,-1.43
2023-01-29T23:24:17.729Z,-1.44
2023-01-29T23:27:04.437Z,-1.44
2023-01-29T23:29:32.200Z,-1.42
2023-01-29T23:31:59.892Z,-1.42
2023-01-29T23:34:27.630Z,-1.42
2023-01-29T23:36:55.391Z,-1.43
2023-01-29T23:39:23.154Z,-1.45
2023-01-29T23:41:50.930Z,-1.45
2023-01-29T23:44:18.784Z,-1.39
2023-01-29T23:46:46.481Z,-1.36
2023-01-29T23:49:14.209Z,-1.35
2023-01-29T23:51:41.974Z,-1.34
2023-01-29T23:54:09.639Z,-1.33
2023-01-29T23:56:37.297Z,-1.30
2023-01-29T23:59:05.063Z,-1.32
